LFMO

Orange-Caritat (BA 115) Air Base

Airport
ICAO code
LFMO
Summary
ICAO Region
EUR
ICAO Territory
Location

, Provence-Alpes-Cote d'Azur

Serving
Orange
Elevation
197 ft
Coordinates
44° 8' 26" N , 4° 52' 0" E
Metar
Observation
LFMO 030100Z AUTO 31003KT 8000 NSC 05/04 Q1012 TEMPO 4000 BR
Station
Orange
Date/Time
2022-12-03 01:00:00
Wind direction
310°
Wind speed
03 kts
Lowest cloud amount
nil significant cloud
Temperature
5°C
Dew point
4°C
Humidity
93%
QNH
1012 hPa
Weather condition
n/a

Runways

Designator Length Width Surface Rops
14/32 0 0 UNK No/No
15/33 2411 60 CON No/No

Airport map

Aerial View

SKYbrary Partners:

Safety knowledge contributed by: